QTR3R VGHS-OTHH
Flight info
| Callsign | QTR3R |
|---|---|
| Flight time | N/A |
| Altitude | 32000 |
| Route | IKOGU A462 CEA G450 JJS/N0501F340 A791 BPL L639 RASKI L301 VAXIM/N0491F360 L301 RAGMA N571 MENSA DCT EGTAG Q576 REVAV/N0426F220 Q576 RORON M430 TOSNA |
| Aircraft | B77W/H-SDE1E3FGHIJ5M1P2RWXYZ/LB1D1 |
Departure
| Time | N/A |
|---|---|
| Airport | Hazrat Shahjalal International Airport (VGHS) |
Arrival
| Time | 2026-05-04 12:42 |
|---|---|
| Airport | Hamad International Airport (OTHH) |
| Time | Latitude | Longitude | Altitude | Speed | Heading |
|---|---|---|---|---|---|
| 2026-05-04 11:55 | 25.22654 | 53.70112 | 29504 ft | 428 kts | 283° |
| 2026-05-04 11:55 | 25.23377 | 53.66941 | 29274 ft | 423 kts | 283° |
| 2026-05-04 11:56 | 25.24087 | 53.63794 | 28910 ft | 422 kts | 283° |
| 2026-05-04 11:56 | 25.24791 | 53.60646 | 28478 ft | 422 kts | 283° |
| 2026-05-04 11:56 | 25.25491 | 53.57500 | 28092 ft | 422 kts | 283° |
| 2026-05-04 11:56 | 25.26189 | 53.54360 | 27752 ft | 420 kts | 283° |
| 2026-05-04 11:57 | 25.26883 | 53.51235 | 27467 ft | 417 kts | 283° |
| 2026-05-04 11:57 | 25.27573 | 53.48130 | 27178 ft | 415 kts | 283° |
| 2026-05-04 11:57 | 25.28258 | 53.45042 | 26855 ft | 413 kts | 282° |
| 2026-05-04 11:57 | 25.28932 | 53.42001 | 26523 ft | 413 kts | 282° |
| 2026-05-04 11:58 | 25.29614 | 53.38923 | 26189 ft | 412 kts | 282° |
| 2026-05-04 11:58 | 25.30294 | 53.35851 | 25884 ft | 411 kts | 282° |
| 2026-05-04 11:58 | 25.30971 | 53.32787 | 25579 ft | 410 kts | 282° |
| 2026-05-04 11:58 | 25.31646 | 53.29730 | 25278 ft | 409 kts | 282° |
| 2026-05-04 11:59 | 25.32319 | 53.26680 | 24986 ft | 408 kts | 282° |
| 2026-05-04 11:59 | 25.32989 | 53.23638 | 24694 ft | 407 kts | 282° |
| 2026-05-04 11:59 | 25.33659 | 53.20599 | 24395 ft | 407 kts | 282° |
| 2026-05-04 11:59 | 25.34169 | 53.17535 | 24108 ft | 405 kts | 275° |
| 2026-05-04 12:00 | 25.34297 | 53.14433 | 23829 ft | 404 kts | 269° |
| 2026-05-04 12:00 | 25.34155 | 53.11341 | 23570 ft | 402 kts | 263° |
| 2026-05-04 12:00 | 25.33699 | 53.08296 | 23295 ft | 401 kts | 259° |
| 2026-05-04 12:00 | 25.33171 | 53.05273 | 22975 ft | 400 kts | 259° |
| 2026-05-04 12:01 | 25.32651 | 53.02255 | 22684 ft | 399 kts | 259° |
| 2026-05-04 12:01 | 25.32149 | 52.99245 | 22412 ft | 397 kts | 259° |
| 2026-05-04 12:02 | 25.29149 | 52.81432 | 20894 ft | 389 kts | 259° |
| 2026-05-04 12:03 | 25.28650 | 52.78495 | 20650 ft | 388 kts | 259° |
| 2026-05-04 12:03 | 25.28153 | 52.75569 | 20407 ft | 387 kts | 259° |
| 2026-05-04 12:03 | 25.27655 | 52.72647 | 20192 ft | 386 kts | 259° |
| 2026-05-04 12:03 | 25.27134 | 52.69756 | 19974 ft | 382 kts | 256° |
| 2026-05-04 12:04 | 25.26102 | 52.67067 | 19661 ft | 380 kts | 238° |
| 2026-05-04 12:04 | 25.24593 | 52.64660 | 19227 ft | 382 kts | 236° |
| 2026-05-04 12:04 | 25.23056 | 52.62251 | 18818 ft | 384 kts | 236° |
| 2026-05-04 12:04 | 25.21531 | 52.59832 | 18529 ft | 383 kts | 237° |
| 2026-05-04 12:05 | 25.20028 | 52.57416 | 18290 ft | 380 kts | 237° |
| 2026-05-04 12:05 | 25.18543 | 52.55010 | 18021 ft | 378 kts | 237° |
| 2026-05-04 12:05 | 25.17069 | 52.52613 | 17700 ft | 377 kts | 237° |
| 2026-05-04 12:05 | 25.15600 | 52.50219 | 17379 ft | 376 kts | 237° |
| 2026-05-04 12:06 | 25.14137 | 52.47838 | 17079 ft | 374 kts | 237° |
| 2026-05-04 12:06 | 25.12677 | 52.45467 | 16787 ft | 372 kts | 236° |
| 2026-05-04 12:06 | 25.10993 | 52.43324 | 16361 ft | 370 kts | 220° |
| 2026-05-04 12:06 | 25.08890 | 52.41658 | 15828 ft | 375 kts | 217° |
| 2026-05-04 12:07 | 25.06744 | 52.40002 | 15480 ft | 376 kts | 217° |
| 2026-05-04 12:07 | 25.04623 | 52.38334 | 15269 ft | 373 kts | 218° |
| 2026-05-04 12:07 | 25.02526 | 52.36663 | 15035 ft | 371 kts | 218° |
| 2026-05-04 12:07 | 25.00446 | 52.34992 | 14773 ft | 370 kts | 218° |
| 2026-05-04 12:08 | 24.98370 | 52.33318 | 14495 ft | 369 kts | 219° |
| 2026-05-04 12:08 | 24.96303 | 52.31651 | 14331 ft | 365 kts | 219° |
| 2026-05-04 12:08 | 24.94305 | 52.30041 | 14304 ft | 358 kts | 219° |
| 2026-05-04 12:08 | 24.92313 | 52.28437 | 14250 ft | 351 kts | 219° |
| 2026-05-04 12:09 | 24.90369 | 52.26873 | 14157 ft | 342 kts | 218° |
| 2026-05-04 12:09 | 24.88598 | 52.25227 | 13967 ft | 325 kts | 233° |
| 2026-05-04 12:09 | 24.87519 | 52.23124 | 13811 ft | 310 kts | 254° |
| 2026-05-04 12:09 | 24.87165 | 52.20839 | 13660 ft | 298 kts | 272° |
| 2026-05-04 12:10 | 24.87427 | 52.18628 | 13508 ft | 287 kts | 288° |
| 2026-05-04 12:10 | 24.88216 | 52.16665 | 13334 ft | 276 kts | 303° |
| 2026-05-04 12:10 | 24.89453 | 52.15079 | 13163 ft | 274 kts | 320° |
| 2026-05-04 12:10 | 24.91058 | 52.13947 | 13019 ft | 275 kts | 335° |
| 2026-05-04 12:11 | 24.92901 | 52.13372 | 12879 ft | 277 kts | 352° |
| 2026-05-04 12:11 | 24.94834 | 52.13363 | 12720 ft | 279 kts | 3° |
| 2026-05-04 12:11 | 24.96741 | 52.13799 | 12568 ft | 282 kts | 19° |
| 2026-05-04 12:11 | 24.98412 | 52.14933 | 12405 ft | 283 kts | 34° |
| 2026-05-04 12:12 | 24.99975 | 52.16245 | 12282 ft | 282 kts | 33° |
| 2026-05-04 12:12 | 25.01556 | 52.17533 | 12143 ft | 283 kts | 32° |
| 2026-05-04 12:12 | 25.03146 | 52.18815 | 12003 ft | 284 kts | 32° |
| 2026-05-04 12:12 | 25.04744 | 52.20100 | 11863 ft | 284 kts | 32° |
| 2026-05-04 12:13 | 25.06236 | 52.21521 | 11681 ft | 287 kts | 49° |
| 2026-05-04 12:14 | 25.01867 | 52.33637 | 11003 ft | 295 kts | 180° |
| 2026-05-04 12:15 | 24.99857 | 52.33527 | 11007 ft | 292 kts | 193° |
| 2026-05-04 12:15 | 24.97919 | 52.32926 | 10977 ft | 287 kts | 212° |
| 2026-05-04 12:15 | 24.96309 | 52.31717 | 11011 ft | 278 kts | 222° |
| 2026-05-04 12:15 | 24.94756 | 52.30422 | 11004 ft | 281 kts | 221° |
| 2026-05-04 12:16 | 24.93179 | 52.29138 | 11002 ft | 283 kts | 220° |
| 2026-05-04 12:16 | 24.91584 | 52.27849 | 11000 ft | 285 kts | 220° |
| 2026-05-04 12:16 | 24.89979 | 52.26558 | 11003 ft | 286 kts | 220° |
| 2026-05-04 12:16 | 24.88579 | 52.25078 | 10978 ft | 275 kts | 243° |
| 2026-05-04 12:17 | 24.87928 | 52.23150 | 10995 ft | 267 kts | 266° |
| 2026-05-04 12:17 | 24.88030 | 52.21140 | 11004 ft | 263 kts | 287° |
| 2026-05-04 12:17 | 24.88773 | 52.19320 | 10995 ft | 261 kts | 307° |
| 2026-05-04 12:17 | 24.90067 | 52.17930 | 10996 ft | 262 kts | 327° |
| 2026-05-04 12:18 | 24.91758 | 52.17188 | 10992 ft | 265 kts | 349° |
| 2026-05-04 12:18 | 24.93608 | 52.17197 | 11004 ft | 269 kts | 7° |
| 2026-05-04 12:18 | 24.95361 | 52.17930 | 10977 ft | 273 kts | 31° |
| 2026-05-04 12:18 | 24.96886 | 52.19189 | 11009 ft | 276 kts | 33° |
| 2026-05-04 12:19 | 24.98444 | 52.20461 | 11009 ft | 281 kts | 32° |
| 2026-05-04 12:19 | 25.00021 | 52.21735 | 11004 ft | 281 kts | 32° |
| 2026-05-04 12:19 | 25.01592 | 52.23002 | 10992 ft | 279 kts | 33° |
| 2026-05-04 12:19 | 25.02887 | 52.24570 | 10997 ft | 281 kts | 59° |
| 2026-05-04 12:20 | 25.03462 | 52.26649 | 11003 ft | 293 kts | 84° |
| 2026-05-04 12:20 | 25.03242 | 52.28934 | 11008 ft | 308 kts | 108° |
| 2026-05-04 12:20 | 25.02156 | 52.30991 | 11001 ft | 316 kts | 135° |
| 2026-05-04 12:20 | 25.00331 | 52.32291 | 10980 ft | 313 kts | 165° |
| 2026-05-04 12:21 | 24.98214 | 52.32489 | 10999 ft | 304 kts | 195° |
| 2026-05-04 12:21 | 24.96288 | 52.31652 | 11005 ft | 294 kts | 217° |
| 2026-05-04 12:21 | 24.94627 | 52.30349 | 11006 ft | 293 kts | 220° |
| 2026-05-04 12:21 | 24.92982 | 52.29005 | 11004 ft | 295 kts | 220° |
| 2026-05-04 12:22 | 24.91325 | 52.27658 | 11000 ft | 297 kts | 220° |
| 2026-05-04 12:22 | 24.89660 | 52.26309 | 10996 ft | 296 kts | 221° |
| 2026-05-04 12:22 | 24.88322 | 52.24676 | 10997 ft | 284 kts | 246° |
| 2026-05-04 12:22 | 24.87767 | 52.22663 | 10994 ft | 277 kts | 269° |
| 2026-05-04 12:23 | 24.87939 | 52.20576 | 11006 ft | 273 kts | 288° |
| 2026-05-04 12:23 | 24.88749 | 52.18702 | 10995 ft | 272 kts | 307° |
| 2026-05-04 12:23 | 24.90111 | 52.17271 | 10989 ft | 273 kts | 327° |
| 2026-05-04 12:23 | 24.91872 | 52.16500 | 10988 ft | 276 kts | 349° |
| 2026-05-04 12:24 | 24.93797 | 52.16496 | 10996 ft | 280 kts | 6° |
| 2026-05-04 12:24 | 24.95638 | 52.17210 | 10972 ft | 285 kts | 30° |
| 2026-05-04 12:24 | 24.97225 | 52.18501 | 11004 ft | 285 kts | 33° |
| 2026-05-04 12:24 | 24.98819 | 52.19811 | 11002 ft | 287 kts | 32° |
| 2026-05-04 12:25 | 25.00436 | 52.21119 | 11001 ft | 290 kts | 32° |
| 2026-05-04 12:25 | 25.02068 | 52.22434 | 11002 ft | 291 kts | 32° |
| 2026-05-04 12:25 | 25.03506 | 52.24001 | 10991 ft | 296 kts | 55° |
| 2026-05-04 12:25 | 25.04240 | 52.26135 | 10995 ft | 304 kts | 79° |
| 2026-05-04 12:26 | 25.04152 | 52.28467 | 10995 ft | 309 kts | 103° |
| 2026-05-04 12:26 | 25.03231 | 52.30603 | 10983 ft | 313 kts | 129° |
| 2026-05-04 12:26 | 25.01578 | 52.32134 | 10997 ft | 311 kts | 156° |
| 2026-05-04 12:26 | 24.99516 | 52.32732 | 11001 ft | 306 kts | 183° |
| 2026-05-04 12:27 | 24.97453 | 52.32342 | 11003 ft | 299 kts | 205° |
| 2026-05-04 12:27 | 24.95673 | 52.31219 | 11001 ft | 294 kts | 220° |
| 2026-05-04 12:27 | 24.94030 | 52.29868 | 11002 ft | 296 kts | 221° |
| 2026-05-04 12:27 | 24.92373 | 52.28508 | 11002 ft | 298 kts | 220° |
| 2026-05-04 12:28 | 24.90703 | 52.27153 | 10997 ft | 299 kts | 220° |
| 2026-05-04 12:28 | 24.89074 | 52.25757 | 10964 ft | 292 kts | 231° |
| 2026-05-04 12:28 | 24.88133 | 52.23881 | 10994 ft | 277 kts | 263° |
| 2026-05-04 12:28 | 24.88235 | 52.21818 | 10998 ft | 267 kts | 286° |
| 2026-05-04 12:29 | 24.88637 | 52.19794 | 11003 ft | 275 kts | 281° |
| 2026-05-04 12:29 | 24.88837 | 52.17680 | 11004 ft | 279 kts | 275° |
| 2026-05-04 12:29 | 24.88852 | 52.15541 | 10936 ft | 279 kts | 271° |
| 2026-05-04 12:29 | 24.88757 | 52.13413 | 10682 ft | 278 kts | 269° |
| 2026-05-04 12:30 | 24.88620 | 52.11331 | 10414 ft | 275 kts | 268° |
| 2026-05-04 12:30 | 24.88469 | 52.09246 | 10119 ft | 272 kts | 268° |
| 2026-05-04 12:30 | 24.88435 | 52.07187 | 9724 ft | 266 kts | 283° |
| 2026-05-04 12:30 | 24.89057 | 52.05294 | 9220 ft | 264 kts | 296° |
| 2026-05-04 12:31 | 24.89808 | 52.03445 | 8814 ft | 265 kts | 295° |
| 2026-05-04 12:31 | 24.90547 | 52.01583 | 8470 ft | 265 kts | 295° |
| 2026-05-04 12:31 | 24.91280 | 51.99730 | 8157 ft | 263 kts | 295° |
| 2026-05-04 12:31 | 24.92006 | 51.97888 | 7856 ft | 261 kts | 295° |
| 2026-05-04 12:32 | 24.92729 | 51.96056 | 7537 ft | 260 kts | 296° |
| 2026-05-04 12:32 | 24.94157 | 51.92433 | 6900 ft | 259 kts | 296° |
| 2026-05-04 12:32 | 24.94873 | 51.90615 | 6592 ft | 258 kts | 296° |
| 2026-05-04 12:33 | 24.95585 | 51.88804 | 6311 ft | 257 kts | 296° |
| 2026-05-04 12:33 | 24.96294 | 51.87000 | 6009 ft | 256 kts | 296° |
| 2026-05-04 12:33 | 24.96999 | 51.85206 | 5691 ft | 255 kts | 297° |
| 2026-05-04 12:33 | 24.97704 | 51.83411 | 5364 ft | 255 kts | 297° |
| 2026-05-04 12:34 | 24.98405 | 51.81625 | 5088 ft | 253 kts | 297° |
| 2026-05-04 12:34 | 24.99098 | 51.79856 | 4798 ft | 251 kts | 297° |
| 2026-05-04 12:34 | 24.99786 | 51.78103 | 4568 ft | 246 kts | 297° |
| 2026-05-04 12:34 | 25.00454 | 51.76396 | 4368 ft | 239 kts | 297° |
| 2026-05-04 12:35 | 25.01102 | 51.74741 | 4183 ft | 231 kts | 297° |
| 2026-05-04 12:35 | 25.01722 | 51.73156 | 4084 ft | 218 kts | 297° |
| 2026-05-04 12:35 | 25.02339 | 51.71672 | 3885 ft | 206 kts | 307° |
| 2026-05-04 12:35 | 25.03345 | 51.70717 | 3719 ft | 182 kts | 334° |
| 2026-05-04 12:36 | 25.04446 | 51.70050 | 3654 ft | 182 kts | 334° |
| 2026-05-04 12:36 | 25.05573 | 51.69426 | 3590 ft | 180 kts | 337° |
| 2026-05-04 12:36 | 25.06715 | 51.68872 | 3533 ft | 179 kts | 338° |
| 2026-05-04 12:36 | 25.07862 | 51.68348 | 3494 ft | 178 kts | 339° |
| 2026-05-04 12:37 | 25.09020 | 51.67832 | 3272 ft | 183 kts | 339° |
| 2026-05-04 12:37 | 25.10185 | 51.67316 | 3072 ft | 177 kts | 339° |
| 2026-05-04 12:37 | 25.11326 | 51.66813 | 2849 ft | 175 kts | 339° |
| 2026-05-04 12:37 | 25.12081 | 51.66480 | 2688 ft | 170 kts | 339° |
| 2026-05-04 12:38 | 25.13134 | 51.66015 | 2485 ft | 158 kts | 339° |
| 2026-05-04 12:38 | 25.14148 | 51.65568 | 2305 ft | 158 kts | 339° |
| 2026-05-04 12:38 | 25.15496 | 51.64975 | 2036 ft | 157 kts | 338° |
| 2026-05-04 12:38 | 25.16513 | 51.64525 | 1839 ft | 157 kts | 338° |
| 2026-05-04 12:39 | 25.17200 | 51.64222 | 1705 ft | 158 kts | 338° |
| 2026-05-04 12:39 | 25.18215 | 51.63774 | 1509 ft | 157 kts | 338° |
| 2026-05-04 12:39 | 25.19225 | 51.63329 | 1299 ft | 156 kts | 338° |
| 2026-05-04 12:39 | 25.20234 | 51.62883 | 1103 ft | 155 kts | 338° |
| 2026-05-04 12:40 | 25.21228 | 51.62443 | 912 ft | 153 kts | 338° |
| 2026-05-04 12:40 | 25.22211 | 51.62007 | 741 ft | 152 kts | 337° |
| 2026-05-04 12:40 | 25.23181 | 51.61578 | 567 ft | 153 kts | 339° |
| 2026-05-04 12:40 | 25.24170 | 51.61142 | 362 ft | 154 kts | 341° |
| 2026-05-04 12:41 | 25.25171 | 51.60703 | 143 ft | 155 kts | 341° |
| 2026-05-04 12:41 | 25.26158 | 51.60268 | 37 ft | 143 kts | 342° |
| 2026-05-04 12:41 | 25.26948 | 51.59921 | 30 ft | 96 kts | 338° |
| 2026-05-04 12:41 | 25.27404 | 51.59722 | 31 ft | 50 kts | 338° |
| 2026-05-04 12:42 | 25.27709 | 51.59586 | 29 ft | 45 kts | 338° |
| 2026-05-04 12:42 | 25.27990 | 51.59515 | 30 ft | 39 kts | 5° |
| 2026-05-04 12:42 | 25.28113 | 51.59542 | 33 ft | 14 kts | 43° |
| 2026-05-04 12:42 | 25.28118 | 51.59605 | 33 ft | 8 kts | 131° |
| 2026-05-04 12:43 | 25.28068 | 51.59631 | 33 ft | 8 kts | 159° |
| 2026-05-04 12:43 | 25.28016 | 51.59654 | 33 ft | 8 kts | 159° |
| 2026-05-04 12:43 | 25.27964 | 51.59677 | 33 ft | 8 kts | 158° |
| 2026-05-04 12:43 | 25.27910 | 51.59701 | 33 ft | 10 kts | 158° |
| 2026-05-04 12:44 | 25.27845 | 51.59729 | 34 ft | 10 kts | 158° |
| 2026-05-04 12:44 | 25.27781 | 51.59758 | 33 ft | 10 kts | 158° |
| 2026-05-04 12:44 | 25.27685 | 51.59800 | 33 ft | 17 kts | 158° |
| 2026-05-04 12:44 | 25.27573 | 51.59849 | 34 ft | 17 kts | 158° |
| 2026-05-04 12:45 | 25.27460 | 51.59899 | 34 ft | 17 kts | 158° |
| 2026-05-04 12:45 | 25.27348 | 51.59948 | 34 ft | 17 kts | 158° |
| 2026-05-04 12:45 | 25.27236 | 51.59998 | 34 ft | 17 kts | 158° |
| 2026-05-04 12:45 | 25.27124 | 51.60047 | 33 ft | 17 kts | 158° |
| 2026-05-04 12:46 | 25.27056 | 51.60076 | 33 ft | 7 kts | 159° |
| 2026-05-04 12:46 | 25.27025 | 51.60111 | 33 ft | 7 kts | 104° |
| 2026-05-04 12:46 | 25.27039 | 51.60162 | 32 ft | 7 kts | 67° |
| 2026-05-04 12:46 | 25.27058 | 51.60212 | 34 ft | 8 kts | 67° |
| 2026-05-04 12:47 | 25.27087 | 51.60290 | 35 ft | 12 kts | 68° |
| 2026-05-04 12:47 | 25.27117 | 51.60374 | 35 ft | 12 kts | 68° |
| 2026-05-04 12:47 | 25.27148 | 51.60458 | 35 ft | 12 kts | 68° |
| 2026-05-04 12:47 | 25.27179 | 51.60541 | 35 ft | 12 kts | 68° |
| 2026-05-04 12:48 | 25.27200 | 51.60607 | 35 ft | 7 kts | 87° |
| 2026-05-04 12:48 | 25.27171 | 51.60646 | 35 ft | 7 kts | 158° |
| 2026-05-04 12:48 | 25.27124 | 51.60666 | 35 ft | 7 kts | 158° |
| 2026-05-04 12:48 | 25.27079 | 51.60690 | 35 ft | 7 kts | 145° |
| 2026-05-04 12:49 | 25.27067 | 51.60742 | 35 ft | 8 kts | 74° |
| 2026-05-04 12:49 | 25.27086 | 51.60798 | 35 ft | 8 kts | 68° |
| 2026-05-04 12:49 | 25.27107 | 51.60853 | 35 ft | 8 kts | 67° |
| 2026-05-04 12:49 | 25.27116 | 51.60902 | 35 ft | 7 kts | 101° |
| 2026-05-04 12:50 | 25.27079 | 51.60931 | 35 ft | 7 kts | 158° |
| 2026-05-04 12:50 | 25.27046 | 51.60946 | 35 ft | 2 kts | 158° |
| 2026-05-04 12:50 | 25.27034 | 51.60952 | 35 ft | 1 kts | 158° |
| 2026-05-04 12:50 | 25.27031 | 51.60953 | 35 ft | 0 kts | 158° |